Time;durP1;ratioP1;P1;durP2;ratioP2;P2;SDS_P1;SDS_P2;PMS_P1;PMS_P2;Temp;Humidity;BMP_temperature;BMP_pressure;BME280_temperature;BME280_humidity;BME280_pressure;Samples;Min_cycle;Max_cycle;Signal;HPM_P1;HPM_P2
2021/03/15 00:00:43;;;;;;;;;;;16.40;57.90;;;;;;4893308;29;19928;-87
2021/03/15 00:03:10;;;;;;;;;;;16.40;58.10;;;;;;4889059;29;20198;-87
2021/03/15 00:05:53;;;;;;;;;;;16.40;58.00;;;;;;4897102;29;20388;-87
2021/03/15 00:08:20;;;;;;;;;;;16.40;57.90;;;;;;4889892;29;19931;-87
2021/03/15 00:10:46;;;;;;;;;;;16.40;58.10;;;;;;4896443;29;20026;-87
2021/03/15 00:13:14;;;;;;;;;;;16.40;58.00;;;;;;4888531;29;19952;-88
2021/03/15 00:15:43;;;;;;;;;;;16.40;57.90;;;;;;4879200;29;20278;-87
2021/03/15 00:18:10;;;;;;;;;;;16.40;58.00;;;;;;4898775;29;21332;-87
2021/03/15 00:20:36;;;;;;;;;;;16.40;57.90;;;;;;4908598;29;20550;-88
2021/03/15 00:23:02;;;;;;;;;;;16.40;57.90;;;;;;4892629;29;20597;-88
2021/03/15 00:25:29;;;;;;;;;;;16.40;58.00;;;;;;4885997;29;19928;-88
2021/03/15 00:27:57;;;;;;;;;;;16.40;58.00;;;;;;4880414;29;19932;-88
2021/03/15 00:30:23;;;;;;;;;;;16.40;58.00;;;;;;4882986;29;19950;-89
2021/03/15 00:32:49;;;;;;;;;;;16.40;57.90;;;;;;4883256;29;19938;-88
2021/03/15 00:35:16;;;;;;;;;;;16.40;58.00;;;;;;4893408;29;19928;-89
2021/03/15 00:37:46;;;;;;;;;;;16.40;57.90;;;;;;4877003;29;19935;-90
2021/03/15 00:40:19;;;;;;;;;;;16.40;58.00;;;;;;4887986;29;19995;-90
2021/03/15 00:42:46;;;;;;;;;;;16.40;57.90;;;;;;4880973;29;19928;-90
2021/03/15 00:45:13;;;;;;;;;;;16.40;57.80;;;;;;4882071;29;19975;-89
2021/03/15 00:47:40;;;;;;;;;;;16.40;57.70;;;;;;4880173;29;20409;-91
2021/03/15 00:50:09;;;;;;;;;;;16.40;57.90;;;;;;4882184;29;19931;-91
2021/03/15 00:52:35;;;;;;;;;;;16.30;57.90;;;;;;4883694;29;19927;-91
2021/03/15 00:55:01;;;;;;;;;;;16.40;58.00;;;;;;4899558;29;19936;-92
2021/03/15 00:57:28;;;;;;;;;;;16.40;57.90;;;;;;4886549;29;19939;-90
2021/03/15 00:59:54;;;;;;;;;;;16.40;57.90;;;;;;4915287;29;19927;-90
2021/03/15 01:02:21;;;;;;;;;;;16.30;57.80;;;;;;4912423;29;19931;-91
2021/03/15 01:04:48;;;;;;;;;;;16.30;57.90;;;;;;4897029;29;19927;-90
2021/03/15 01:07:15;;;;;;;;;;;16.40;58.10;;;;;;4913281;29;20022;-91
2021/03/15 01:09:41;;;;;;;;;;;16.40;58.10;;;;;;4915696;29;19939;-90
2021/03/15 01:12:08;;;;;;;;;;;16.30;58.00;;;;;;4888705;29;19934;-90
2021/03/15 01:14:34;;;;;;;;;;;16.40;57.80;;;;;;4911542;29;20390;-90
2021/03/15 01:17:02;;;;;;;;;;;16.30;57.90;;;;;;4904571;29;19962;-91
2021/03/15 01:19:30;;;;;;;;;;;16.40;58.10;;;;;;4898966;29;19926;-90
2021/03/15 01:21:56;;;;;;;;;;;16.40;57.90;;;;;;4901771;29;19935;-90
2021/03/15 01:24:23;;;;;;;;;;;16.30;57.90;;;;;;4908986;29;20007;-91
2021/03/15 01:26:49;;;;;;;;;;;16.40;58.00;;;;;;4891044;29;19934;-92
2021/03/15 01:29:16;;;;;;;;;;;16.40;58.10;;;;;;4893890;29;19963;-93
2021/03/15 01:31:43;;;;;;;;;;;16.30;58.10;;;;;;4887499;29;20361;-92
2021/03/15 01:34:09;;;;;;;;;;;16.40;58.00;;;;;;4880201;29;20015;-91
2021/03/15 01:36:35;;;;;;;;;;;16.30;58.00;;;;;;4899680;29;19946;-91
2021/03/15 01:39:03;;;;;;;;;;;16.30;58.00;;;;;;4895273;29;19936;-92
2021/03/15 01:41:29;;;;;;;;;;;16.40;58.00;;;;;;4901411;29;20423;-91
2021/03/15 01:43:55;;;;;;;;;;;16.30;58.70;;;;;;4869276;29;19927;-90
2021/03/15 01:46:21;;;;;;;;;;;16.40;58.10;;;;;;4881340;29;19935;-91
2021/03/15 01:48:48;;;;;;;;;;;16.30;58.10;;;;;;4892866;29;19927;-90
2021/03/15 01:51:16;;;;;;;;;;;16.30;58.10;;;;;;4899848;29;19928;-92
2021/03/15 01:53:44;;;;;;;;;;;16.30;58.10;;;;;;4897945;29;19938;-94
2021/03/15 01:56:11;;;;;;;;;;;16.30;58.10;;;;;;4900841;29;19928;-94
2021/03/15 01:58:37;;;;;;;;;;;16.30;58.10;;;;;;4898325;29;20472;-95
2021/03/15 02:01:04;;;;;;;;;;;16.30;58.10;;;;;;4907145;29;20273;-95
2021/03/15 02:03:31;;;;;;;;;;;16.30;58.10;;;;;;4896436;29;19927;-93
2021/03/15 02:06:00;;;;;;;;;;;16.30;58.00;;;;;;4899415;29;19934;-93
2021/03/15 02:08:26;;;;;;;;;;;16.30;58.00;;;;;;4889829;29;19927;-91
2021/03/15 02:10:52;;;;;;;;;;;16.30;58.00;;;;;;4888585;29;19927;-91
2021/03/15 02:13:43;;;;;;;;;;;16.30;57.90;;;;;;4896837;29;19936;-90
2021/03/15 02:16:21;;;;;;;;;;;16.30;58.00;;;;;;4892985;29;20176;-89
2021/03/15 02:19:03;;;;;;;;;;;16.30;58.00;;;;;;4906442;29;20653;-89
2021/03/15 02:21:48;;;;;;;;;;;16.30;57.90;;;;;;4905596;29;19931;-90
2021/03/15 02:24:35;;;;;;;;;;;16.30;57.90;;;;;;4896102;29;20182;-89
2021/03/15 02:27:14;;;;;;;;;;;16.30;58.50;;;;;;4872910;29;19928;-90
2021/03/15 02:29:46;;;;;;;;;;;16.30;57.90;;;;;;4909475;29;19931;-88
2021/03/15 02:32:15;;;;;;;;;;;16.30;57.90;;;;;;4895987;29;21983;-89
2021/03/15 02:35:03;;;;;;;;;;;16.30;58.00;;;;;;4897514;29;19915;-94
2021/03/15 02:38:07;;;;;;;;;;;16.30;57.90;;;;;;4869409;29;20317;-89
2021/03/15 02:40:55;;;;;;;;;;;16.30;58.00;;;;;;4883258;29;19938;-91
2021/03/15 02:43:36;;;;;;;;;;;16.30;58.00;;;;;;4886136;29;20301;-92
2021/03/15 02:46:04;;;;;;;;;;;16.30;58.10;;;;;;4908794;29;19961;-91
2021/03/15 02:48:33;;;;;;;;;;;16.30;58.10;;;;;;4911984;29;20332;-94
2021/03/15 02:51:00;;;;;;;;;;;16.30;58.10;;;;;;4897714;29;20014;-93
2021/03/15 02:53:27;;;;;;;;;;;16.30;58.10;;;;;;4894231;29;20262;-91
2021/03/15 02:56:01;;;;;;;;;;;16.30;58.10;;;;;;4897231;29;19935;-92
2021/03/15 02:58:31;;;;;;;;;;;16.30;58.10;;;;;;4898350;29;19931;-95
2021/03/15 03:00:57;;;;;;;;;;;16.30;58.10;;;;;;4889406;29;19979;-94
2021/03/15 03:03:25;;;;;;;;;;;16.30;58.00;;;;;;4891842;29;19957;-94
2021/03/15 03:05:53;;;;;;;;;;;16.30;58.10;;;;;;4895390;29;19955;-94
2021/03/15 03:08:20;;;;;;;;;;;16.30;58.10;;;;;;4897025;29;19959;-94
2021/03/15 03:10:47;;;;;;;;;;;16.30;58.20;;;;;;4897908;29;20010;-94
2021/03/15 03:13:15;;;;;;;;;;;16.30;58.10;;;;;;4893612;29;20325;-93
2021/03/15 03:15:42;;;;;;;;;;;16.30;58.00;;;;;;4878778;29;20497;-95
2021/03/15 03:18:12;;;;;;;;;;;16.20;58.00;;;;;;4877746;29;20441;-95
2021/03/15 03:20:41;;;;;;;;;;;16.30;58.00;;;;;;4916894;29;19942;-95
2021/03/15 03:23:08;;;;;;;;;;;16.20;58.10;;;;;;4899046;29;19932;-96
2021/03/15 03:25:35;;;;;;;;;;;16.30;58.00;;;;;;4879519;29;19928;-92
2021/03/15 03:28:01;;;;;;;;;;;16.20;57.80;;;;;;4891021;29;19916;-90
2021/03/15 03:30:29;;;;;;;;;;;16.30;57.70;;;;;;4880941;29;19932;-92
2021/03/15 03:32:57;;;;;;;;;;;16.30;57.80;;;;;;4895679;29;19932;-93
2021/03/15 03:35:23;;;;;;;;;;;16.20;57.80;;;;;;4912580;29;20713;-91
2021/03/15 03:37:49;;;;;;;;;;;16.20;57.80;;;;;;4881831;29;19927;-91
2021/03/15 03:40:16;;;;;;;;;;;16.20;57.80;;;;;;4895486;29;20035;-94
2021/03/15 03:42:43;;;;;;;;;;;16.30;57.90;;;;;;4886522;29;19935;-93
2021/03/15 03:45:10;;;;;;;;;;;16.20;57.80;;;;;;4879777;29;19935;-94
2021/03/15 03:47:37;;;;;;;;;;;16.20;57.70;;;;;;4894849;29;20296;-93
2021/03/15 03:50:08;;;;;;;;;;;16.30;57.80;;;;;;4910335;29;19927;-94
2021/03/15 03:52:36;;;;;;;;;;;16.20;57.60;;;;;;4893213;29;19978;-91
2021/03/15 03:55:05;;;;;;;;;;;16.20;57.60;;;;;;4890093;29;19927;-91
2021/03/15 03:57:32;;;;;;;;;;;16.20;57.60;;;;;;4897443;29;19934;-93
2021/03/15 04:00:09;;;;;;;;;;;16.20;57.40;;;;;;4911683;29;19928;-91
2021/03/15 04:03:01;;;;;;;;;;;16.20;57.40;;;;;;4870188;29;19927;-94
2021/03/15 04:05:29;;;;;;;;;;;16.20;57.50;;;;;;4867150;29;20476;-93
2021/03/15 04:08:01;;;;;;;;;;;16.20;57.40;;;;;;4863549;29;19935;-95
2021/03/15 04:10:29;;;;;;;;;;;16.20;57.40;;;;;;4874099;29;20471;-92
2021/03/15 04:12:58;;;;;;;;;;;16.20;57.30;;;;;;4903361;29;19927;-95
2021/03/15 04:15:25;;;;;;;;;;;16.20;57.40;;;;;;4898478;29;19928;-95
2021/03/15 04:17:56;;;;;;;;;;;16.20;57.50;;;;;;4891847;29;19935;-95
2021/03/15 04:20:27;;;;;;;;;;;16.20;57.50;;;;;;4880928;29;20046;-92
2021/03/15 04:22:55;;;;;;;;;;;16.20;57.50;;;;;;4899423;29;20140;-94
2021/03/15 04:25:23;;;;;;;;;;;16.20;57.40;;;;;;4899105;29;21481;-93
2021/03/15 04:27:52;;;;;;;;;;;16.20;57.40;;;;;;4895396;29;19926;-93
2021/03/15 04:30:19;;;;;;;;;;;16.20;57.40;;;;;;4878307;29;19935;-91
2021/03/15 04:32:52;;;;;;;;;;;16.20;57.50;;;;;;4878258;29;20298;-91
2021/03/15 04:35:21;;;;;;;;;;;16.20;57.30;;;;;;4896084;29;19995;-90
2021/03/15 04:37:49;;;;;;;;;;;16.20;57.40;;;;;;4879560;29;19939;-90
2021/03/15 04:40:16;;;;;;;;;;;16.20;57.40;;;;;;4893535;29;20028;-90
2021/03/15 04:42:43;;;;;;;;;;;16.20;57.40;;;;;;4896646;29;19936;-91
2021/03/15 04:45:10;;;;;;;;;;;16.20;57.30;;;;;;4887814;29;19935;-92
2021/03/15 04:47:37;;;;;;;;;;;16.20;57.40;;;;;;4876934;29;19928;-92
2021/03/15 04:50:04;;;;;;;;;;;16.10;57.40;;;;;;4883508;29;19967;-92
2021/03/15 04:52:30;;;;;;;;;;;16.10;57.30;;;;;;4912325;29;19979;-91
2021/03/15 04:54:56;;;;;;;;;;;16.10;57.10;;;;;;4873574;29;20022;-91
2021/03/15 04:57:23;;;;;;;;;;;16.20;57.10;;;;;;4875709;29;19928;-92
2021/03/15 04:59:56;;;;;;;;;;;16.10;57.00;;;;;;4880340;29;19927;-93
2021/03/15 05:02:24;;;;;;;;;;;16.10;57.10;;;;;;4898902;29;19936;-92
2021/03/15 05:04:51;;;;;;;;;;;16.10;57.00;;;;;;4881375;29;19939;-92
2021/03/15 05:07:19;;;;;;;;;;;16.10;56.90;;;;;;4898084;29;19962;-92
2021/03/15 05:09:55;;;;;;;;;;;16.20;57.00;;;;;;4880453;29;19963;-92
2021/03/15 05:12:22;;;;;;;;;;;16.10;57.00;;;;;;4892514;29;20003;-91
2021/03/15 05:14:49;;;;;;;;;;;16.10;57.00;;;;;;4896709;29;20388;-91
2021/03/15 05:17:15;;;;;;;;;;;16.10;57.00;;;;;;4900406;29;19951;-94
2021/03/15 05:19:42;;;;;;;;;;;16.10;57.00;;;;;;4900999;29;19979;-96
2021/03/15 05:22:09;;;;;;;;;;;16.20;56.90;;;;;;4887973;29;19980;-94
2021/03/15 05:24:36;;;;;;;;;;;16.10;56.90;;;;;;4901317;29;19934;-95
2021/03/15 05:27:03;;;;;;;;;;;16.10;56.90;;;;;;4898075;29;19927;-95
2021/03/15 05:29:34;;;;;;;;;;;16.10;56.80;;;;;;4900535;29;19928;-95
2021/03/15 05:32:01;;;;;;;;;;;16.10;56.80;;;;;;4883500;29;20014;-95
2021/03/15 05:37:19;;;;;;;;;;;16.10;56.90;;;;;;5023515;23;19928;-96
2021/03/15 05:39:51;;;;;;;;;;;16.10;56.80;;;;;;4899813;29;19934;-96
2021/03/15 05:42:23;;;;;;;;;;;16.10;56.80;;;;;;4881136;29;19927;-95
2021/03/15 05:44:52;;;;;;;;;;;16.10;56.70;;;;;;4892532;29;20018;-96
2021/03/15 05:47:37;;;;;;;;;;;16.10;56.80;;;;;;4901110;29;20208;-96
2021/03/15 05:50:13;;;;;;;;;;;16.10;56.70;;;;;;4897160;29;19935;-96
2021/03/15 05:52:45;;;;;;;;;;;16.10;56.80;;;;;;4917350;29;20569;-95
2021/03/15 05:55:32;;;;;;;;;;;16.10;56.80;;;;;;4894116;29;19990;-95
2021/03/15 05:58:31;;;;;;;;;;;16.10;56.80;;;;;;4876058;29;19982;-94
2021/03/15 06:01:15;;;;;;;;;;;16.10;56.70;;;;;;4888227;29;21163;-94
2021/03/15 06:04:14;;;;;;;;;;;16.10;56.70;;;;;;4856716;29;19927;-95
2021/03/15 06:06:41;;;;;;;;;;;16.10;56.60;;;;;;4848060;29;19928;-95
2021/03/15 06:09:12;;;;;;;;;;;16.10;56.60;;;;;;4895775;29;20192;-94
2021/03/15 06:11:49;;;;;;;;;;;16.10;56.70;;;;;;4895299;29;19934;-95
2021/03/15 06:14:16;;;;;;;;;;;16.10;56.60;;;;;;4888322;29;21710;-93
2021/03/15 06:16:43;;;;;;;;;;;16.10;56.70;;;;;;4893581;29;20014;-91
2021/03/15 06:19:11;;;;;;;;;;;16.10;56.80;;;;;;4891770;29;19927;-89
2021/03/15 06:21:38;;;;;;;;;;;16.10;57.00;;;;;;4871236;29;19927;-89
2021/03/15 06:24:04;;;;;;;;;;;16.10;56.90;;;;;;4877813;29;19928;-89
2021/03/15 06:26:31;;;;;;;;;;;16.10;57.10;;;;;;4884549;29;19927;-90
2021/03/15 06:29:01;;;;;;;;;;;16.10;57.00;;;;;;4885706;29;19934;-88
2021/03/15 06:31:29;;;;;;;;;;;16.10;57.10;;;;;;4890092;29;19936;-95
2021/03/15 06:33:57;;;;;;;;;;;16.10;57.10;;;;;;4903641;29;20464;-90
2021/03/15 06:36:26;;;;;;;;;;;16.10;57.00;;;;;;4898474;29;19935;-96
2021/03/15 06:38:55;;;;;;;;;;;16.10;56.90;;;;;;4888139;29;19934;-93
2021/03/15 06:41:25;;;;;;;;;;;16.10;57.10;;;;;;4922969;29;19931;-94
2021/03/15 06:43:51;;;;;;;;;;;16.20;57.10;;;;;;4900875;29;20580;-95
2021/03/15 06:46:19;;;;;;;;;;;16.10;57.20;;;;;;4912903;29;19938;-95
2021/03/15 06:48:47;;;;;;;;;;;16.10;57.20;;;;;;4914578;29;19927;-96
2021/03/15 06:51:16;;;;;;;;;;;16.10;57.10;;;;;;4891407;29;19928;-88
2021/03/15 06:53:43;;;;;;;;;;;16.10;57.20;;;;;;4907261;29;19995;-96
2021/03/15 06:56:13;;;;;;;;;;;16.10;57.10;;;;;;4908080;29;19962;-90
2021/03/15 06:58:53;;;;;;;;;;;16.10;57.30;;;;;;4894928;29;20337;-94
2021/03/15 07:01:20;;;;;;;;;;;16.10;57.30;;;;;;4914229;29;19927;-94
2021/03/15 07:03:50;;;;;;;;;;;16.10;57.30;;;;;;4905675;29;20014;-93
2021/03/15 07:06:19;;;;;;;;;;;16.10;57.20;;;;;;4912482;29;20029;-95
2021/03/15 07:09:06;;;;;;;;;;;16.10;57.10;;;;;;4892553;29;19931;-92
2021/03/15 07:11:32;;;;;;;;;;;16.20;58.10;;;;;;4903614;29;20006;-87
2021/03/15 07:13:59;;;;;;;;;;;16.30;60.00;;;;;;4905048;29;19943;-87
2021/03/15 07:16:28;;;;;;;;;;;16.60;58.50;;;;;;4905407;29;19934;-90
2021/03/15 07:18:55;;;;;;;;;;;17.20;56.50;;;;;;4904374;29;19928;-89
2021/03/15 07:21:41;;;;;;;;;;;17.70;55.70;;;;;;4906475;29;19928;-90
2021/03/15 07:24:08;;;;;;;;;;;18.00;54.30;;;;;;4899637;29;21764;-87
2021/03/15 07:26:37;;;;;;;;;;;18.30;53.60;;;;;;4909750;29;19931;-82
2021/03/15 07:29:09;;;;;;;;;;;18.40;54.30;;;;;;4908637;29;19994;-85
2021/03/15 07:31:35;;;;;;;;;;;18.80;53.60;;;;;;4905676;29;19931;-83
2021/03/15 07:34:01;;;;;;;;;;;19.20;53.80;;;;;;4904923;29;19928;-85
2021/03/15 07:36:45;;;;;;;;;;;19.50;53.40;;;;;;4908807;29;19927;-93
2021/03/15 07:39:16;;;;;;;;;;;19.70;53.60;;;;;;4886604;29;19928;-93
2021/03/15 07:41:49;;;;;;;;;;;20.00;53.40;;;;;;4891417;29;20026;-86
2021/03/15 07:44:17;;;;;;;;;;;20.10;53.40;;;;;;4881159;29;20319;-85
2021/03/15 07:46:45;;;;;;;;;;;20.30;53.10;;;;;;4890995;29;19970;-84
2021/03/15 07:52:39;;;;;;;;;;;20.70;52.60;;;;;;4885022;29;21541;-84
2021/03/15 07:55:05;;;;;;;;;;;20.90;52.30;;;;;;4892693;29;21540;-85
2021/03/15 07:57:33;;;;;;;;;;;21.00;51.90;;;;;;4912527;29;19927;-86
2021/03/15 07:59:59;;;;;;;;;;;21.10;51.80;;;;;;4891567;29;19936;-87
2021/03/15 08:02:27;;;;;;;;;;;21.10;51.60;;;;;;4889652;29;19934;-84
2021/03/15 08:04:55;;;;;;;;;;;21.00;53.10;;;;;;4908612;29;19946;-90
2021/03/15 08:07:24;;;;;;;;;;;20.60;52.50;;;;;;4896662;29;19939;-87
2021/03/15 08:09:55;;;;;;;;;;;20.30;53.20;;;;;;4883923;29;20021;-85
2021/03/15 08:12:23;;;;;;;;;;;20.10;53.80;;;;;;4893056;29;19927;-84
2021/03/15 08:14:55;;;;;;;;;;;20.00;53.90;;;;;;4894402;29;19963;-85
2021/03/15 08:17:24;;;;;;;;;;;19.90;54.60;;;;;;4886755;29;19931;-84
2021/03/15 08:19:55;;;;;;;;;;;19.90;54.30;;;;;;4908630;29;20426;-84
2021/03/15 08:22:27;;;;;;;;;;;19.80;54.20;;;;;;4894899;29;20415;-87
2021/03/15 08:24:58;;;;;;;;;;;19.80;54.10;;;;;;4893183;29;19967;-86
2021/03/15 08:27:35;;;;;;;;;;;19.80;53.90;;;;;;4908253;29;19935;-91
2021/03/15 08:30:03;;;;;;;;;;;19.80;54.00;;;;;;4883651;29;19930;-82
2021/03/15 08:32:37;;;;;;;;;;;19.70;53.80;;;;;;4879729;29;19985;-87
2021/03/15 08:35:08;;;;;;;;;;;19.80;53.90;;;;;;4886205;29;20351;-86
2021/03/15 08:37:52;;;;;;;;;;;19.70;54.20;;;;;;4862978;29;20176;-89
2021/03/15 08:40:49;;;;;;;;;;;19.80;54.10;;;;;;4858544;29;19938;-87
2021/03/15 08:43:16;;;;;;;;;;;19.80;54.00;;;;;;4828338;29;19979;-81
2021/03/15 08:46:01;;;;;;;;;;;19.80;53.40;;;;;;4882208;29;19942;-89
2021/03/15 08:48:40;;;;;;;;;;;19.80;53.50;;;;;;4890826;29;19942;-87
2021/03/15 08:51:33;;;;;;;;;;;19.80;53.70;;;;;;4888044;29;20565;-93
2021/03/15 08:54:08;;;;;;;;;;;19.80;53.40;;;;;;4856604;29;19951;-91
2021/03/15 08:56:39;;;;;;;;;;;19.90;53.40;;;;;;4865035;29;19932;-84
2021/03/15 08:59:29;;;;;;;;;;;19.90;53.70;;;;;;4869893;29;19931;-88
2021/03/15 09:01:59;;;;;;;;;;;19.90;52.90;;;;;;4874545;29;19935;-87
2021/03/15 09:04:42;;;;;;;;;;;19.90;52.90;;;;;;4856884;29;20251;-86
2021/03/15 09:07:33;;;;;;;;;;;19.80;53.20;;;;;;4858464;29;20392;-87
2021/03/15 09:10:23;;;;;;;;;;;19.80;52.90;;;;;;4847783;29;19928;-89
2021/03/15 09:13:15;;;;;;;;;;;19.90;52.90;;;;;;4880044;29;20010;-88
2021/03/15 09:15:51;;;;;;;;;;;19.90;52.80;;;;;;4876378;29;19939;-91
2021/03/15 09:18:37;;;;;;;;;;;19.90;52.90;;;;;;4856946;29;20018;-88
2021/03/15 09:21:37;;;;;;;;;;;19.70;51.60;;;;;;4885339;29;24905;-90
2021/03/15 09:24:34;;;;;;;;;;;19.70;52.70;;;;;;4797829;29;19930;-89
2021/03/15 09:27:03;;;;;;;;;;;19.70;52.60;;;;;;4849980;29;19932;-92
2021/03/15 09:29:36;;;;;;;;;;;19.80;52.70;;;;;;4866657;29;20042;-94
2021/03/15 09:32:11;;;;;;;;;;;20.30;51.10;;;;;;4882926;29;19927;-94
2021/03/15 09:34:49;;;;;;;;;;;21.00;49.30;;;;;;4875134;29;19939;-87
2021/03/15 09:37:19;;;;;;;;;;;21.60;48.40;;;;;;4898105;29;19926;-92
2021/03/15 09:39:45;;;;;;;;;;;22.00;47.80;;;;;;4908193;29;20396;-87
2021/03/15 09:42:12;;;;;;;;;;;22.10;47.00;;;;;;4886793;29;19931;-86
2021/03/15 09:44:46;;;;;;;;;;;22.30;46.70;;;;;;4864921;29;19931;-87
2021/03/15 09:47:27;;;;;;;;;;;22.50;46.50;;;;;;4888278;29;20017;-85
2021/03/15 09:49:57;;;;;;;;;;;22.80;46.30;;;;;;4929545;29;19931;-87
2021/03/15 09:52:24;;;;;;;;;;;23.00;46.00;;;;;;4895558;29;19932;-85
2021/03/15 09:54:54;;;;;;;;;;;23.10;45.90;;;;;;4902595;29;19931;-89
2021/03/15 09:57:23;;;;;;;;;;;23.30;45.50;;;;;;4911780;29;20022;-84
2021/03/15 10:00:21;;;;;;;;;;;23.50;45.40;;;;;;4857628;29;19978;-88
2021/03/15 10:02:55;;;;;;;;;;;23.70;45.20;;;;;;4863251;29;20417;-95
2021/03/15 10:05:22;;;;;;;;;;;23.80;45.00;;;;;;4907277;29;19946;-84
2021/03/15 10:07:58;;;;;;;;;;;23.10;44.50;;;;;;4902642;29;20018;-89
2021/03/15 10:10:43;;;;;;;;;;;23.20;45.00;;;;;;4878158;29;19931;-87
2021/03/15 10:13:10;;;;;;;;;;;23.30;44.70;;;;;;4900688;29;19930;-89
2021/03/15 10:15:45;;;;;;;;;;;23.30;44.30;;;;;;4921894;29;19965;-89
2021/03/15 10:18:21;;;;;;;;;;;23.40;44.30;;;;;;4863240;29;19942;-89
2021/03/15 10:20:54;;;;;;;;;;;23.70;44.20;;;;;;4885534;29;19973;-87
2021/03/15 10:23:44;;;;;;;;;;;23.80;44.00;;;;;;4883143;29;19935;-88
2021/03/15 10:26:10;;;;;;;;;;;24.00;44.00;;;;;;4900699;29;19974;-91
2021/03/15 10:28:47;;;;;;;;;;;24.00;43.70;;;;;;4890711;28;19931;-86
2021/03/15 10:31:23;;;;;;;;;;;24.10;43.60;;;;;;4896171;29;19931;-81
2021/03/15 10:33:50;;;;;;;;;;;24.30;43.60;;;;;;4907708;29;19931;-82
2021/03/15 10:36:21;;;;;;;;;;;24.40;43.30;;;;;;4909822;29;20050;-90
2021/03/15 10:38:51;;;;;;;;;;;24.50;43.30;;;;;;4854535;29;19941;-83
2021/03/15 10:41:21;;;;;;;;;;;24.50;43.20;;;;;;4888093;29;20443;-83
2021/03/15 10:43:48;;;;;;;;;;;24.70;43.40;;;;;;4897845;29;20572;-82
2021/03/15 10:46:18;;;;;;;;;;;24.70;42.60;;;;;;4895457;29;20612;-88
2021/03/15 10:48:53;;;;;;;;;;;24.70;43.00;;;;;;4899847;29;19931;-91
2021/03/15 10:51:19;;;;;;;;;;;24.80;42.20;;;;;;4890783;29;19951;-92
2021/03/15 10:53:55;;;;;;;;;;;24.70;42.00;;;;;;4907147;29;19934;-92
2021/03/15 10:56:22;;;;;;;;;;;24.70;42.00;;;;;;4880587;29;19966;-85
2021/03/15 10:58:49;;;;;;;;;;;24.80;41.90;;;;;;4910919;29;19935;-90
2021/03/15 11:01:22;;;;;;;;;;;25.00;41.70;;;;;;4899462;29;20327;-84
2021/03/15 11:03:50;;;;;;;;;;;25.00;41.50;;;;;;4896045;29;20374;-87
2021/03/15 11:06:19;;;;;;;;;;;23.80;41.50;;;;;;4895872;29;21280;-88
2021/03/15 11:08:55;;;;;;;;;;;23.00;43.70;;;;;;4895790;29;20017;-87
2021/03/15 11:11:22;;;;;;;;;;;22.40;44.80;;;;;;4906616;29;20236;-87
2021/03/15 11:13:50;;;;;;;;;;;22.10;45.70;;;;;;4914450;29;19935;-86
2021/03/15 11:16:29;;;;;;;;;;;21.80;46.00;;;;;;4916265;29;19930;-87
2021/03/15 11:19:24;;;;;;;;;;;21.60;46.60;;;;;;4865477;29;20105;-86
2021/03/15 11:21:53;;;;;;;;;;;21.40;46.90;;;;;;4910195;29;20366;-86
2021/03/15 11:24:28;;;;;;;;;;;21.30;47.00;;;;;;4885485;29;20003;-87
2021/03/15 11:26:55;;;;;;;;;;;21.20;47.30;;;;;;4899747;29;21019;-87
2021/03/15 11:29:36;;;;;;;;;;;21.00;47.60;;;;;;4897400;29;19966;-87
2021/03/15 11:32:08;;;;;;;;;;;21.00;47.80;;;;;;4886848;29;21162;-86
2021/03/15 11:34:44;;;;;;;;;;;20.80;47.90;;;;;;4896210;29;20423;-87
2021/03/15 11:37:10;;;;;;;;;;;20.70;47.80;;;;;;4888891;29;19934;-88
2021/03/15 11:39:57;;;;;;;;;;;20.70;48.30;;;;;;4890912;29;19927;-96
2021/03/15 11:42:28;;;;;;;;;;;20.70;48.70;;;;;;4880397;29;19933;-96
2021/03/15 11:45:03;;;;;;;;;;;20.60;50.40;;;;;;4877535;29;20937;-88
2021/03/15 11:47:32;;;;;;;;;;;20.50;49.40;;;;;;4869656;29;20331;-90
2021/03/15 11:49:58;;;;;;;;;;;20.50;49.10;;;;;;4905796;29;19979;-91
2021/03/15 11:52:26;;;;;;;;;;;20.50;49.00;;;;;;4892973;29;19958;-88
2021/03/15 11:54:59;;;;;;;;;;;20.50;49.20;;;;;;4887830;29;19915;-89
2021/03/15 11:57:26;;;;;;;;;;;20.40;47.90;;;;;;4890190;29;21387;-87
2021/03/15 11:59:52;;;;;;;;;;;20.30;48.70;;;;;;4874518;29;20223;-88
2021/03/15 12:02:19;;;;;;;;;;;20.40;48.80;;;;;;4869328;29;19943;-90
2021/03/15 12:04:46;;;;;;;;;;;20.40;48.10;;;;;;4891722;29;19931;-86
2021/03/15 12:07:12;;;;;;;;;;;20.50;48.20;;;;;;4900818;29;19978;-87
2021/03/15 12:09:41;;;;;;;;;;;20.50;48.10;;;;;;4891287;29;20022;-92
2021/03/15 12:12:08;;;;;;;;;;;20.60;47.70;;;;;;4870992;29;20021;-87
2021/03/15 12:14:34;;;;;;;;;;;20.60;47.40;;;;;;4890752;29;19915;-88
2021/03/15 12:17:01;;;;;;;;;;;20.60;47.00;;;;;;4908687;29;19935;-91
2021/03/15 12:19:28;;;;;;;;;;;20.60;47.40;;;;;;4892579;29;20127;-90
2021/03/15 12:22:00;;;;;;;;;;;20.60;46.80;;;;;;4893818;29;19931;-92
2021/03/15 12:24:26;;;;;;;;;;;20.70;47.10;;;;;;4873125;29;19935;-93
2021/03/15 12:26:52;;;;;;;;;;;20.70;47.00;;;;;;4892336;29;19963;-93
2021/03/15 12:29:21;;;;;;;;;;;20.80;46.60;;;;;;4889554;29;20394;-88
2021/03/15 12:31:48;;;;;;;;;;;20.80;46.80;;;;;;4878308;29;19974;-88
2021/03/15 12:34:16;;;;;;;;;;;20.70;47.20;;;;;;4884676;29;19927;-96
2021/03/15 12:36:42;;;;;;;;;;;20.80;46.80;;;;;;4896015;29;19931;-90
2021/03/15 12:39:10;;;;;;;;;;;20.70;47.10;;;;;;4903001;29;19927;-90
2021/03/15 12:41:36;;;;;;;;;;;20.80;47.30;;;;;;4891987;29;20352;-88
2021/03/15 12:44:03;;;;;;;;;;;20.90;47.10;;;;;;4904310;29;20018;-95
2021/03/15 12:46:32;;;;;;;;;;;20.80;46.80;;;;;;4903884;29;19931;-96
2021/03/15 12:49:04;;;;;;;;;;;20.80;47.20;;;;;;4922254;29;20026;-91
2021/03/15 12:51:31;;;;;;;;;;;20.80;47.10;;;;;;4897353;29;19931;-96
2021/03/15 12:54:15;;;;;;;;;;;20.90;47.30;;;;;;4893650;29;19935;-89
2021/03/15 12:56:42;;;;;;;;;;;21.00;47.60;;;;;;4910910;29;19931;-89
2021/03/15 12:59:13;;;;;;;;;;;20.90;47.20;;;;;;4903603;29;19935;-88
2021/03/15 13:01:39;;;;;;;;;;;20.90;47.40;;;;;;4903695;29;20729;-91
2021/03/15 13:04:09;;;;;;;;;;;20.90;47.00;;;;;;4908101;29;19937;-89
2021/03/15 13:06:38;;;;;;;;;;;20.90;46.90;;;;;;4902584;29;19931;-88
2021/03/15 13:09:05;;;;;;;;;;;20.90;46.60;;;;;;4905353;29;19915;-94
2021/03/15 13:11:32;;;;;;;;;;;20.90;47.00;;;;;;4911604;29;19958;-94
2021/03/15 13:13:58;;;;;;;;;;;20.90;47.20;;;;;;4897769;29;19943;-96
2021/03/15 13:16:26;;;;;;;;;;;20.90;47.30;;;;;;4860875;29;19927;-94
2021/03/15 13:18:52;;;;;;;;;;;20.90;47.10;;;;;;4905164;29;19986;-87
2021/03/15 13:21:19;;;;;;;;;;;20.80;46.80;;;;;;4903520;29;19954;-95
2021/03/15 13:23:46;;;;;;;;;;;20.60;47.10;;;;;;4899040;29;20022;-95
2021/03/15 13:26:12;;;;;;;;;;;20.40;47.30;;;;;;4891056;29;20049;-90
2021/03/15 13:28:39;;;;;;;;;;;20.30;47.30;;;;;;4903785;29;19931;-93
2021/03/15 13:31:06;;;;;;;;;;;20.20;47.10;;;;;;4899754;29;19986;-90
2021/03/15 13:33:33;;;;;;;;;;;20.10;47.30;;;;;;4906054;29;20003;-94
2021/03/15 13:36:00;;;;;;;;;;;20.10;47.50;;;;;;4910043;29;20401;-92
2021/03/15 13:38:26;;;;;;;;;;;20.00;47.60;;;;;;4903245;29;20383;-91
2021/03/15 13:40:55;;;;;;;;;;;20.00;48.00;;;;;;4913260;29;19931;-94
2021/03/15 13:43:23;;;;;;;;;;;19.90;48.30;;;;;;4909518;28;19935;-93
2021/03/15 13:45:49;;;;;;;;;;;19.90;48.40;;;;;;4917472;29;19926;-96
2021/03/15 13:48:16;;;;;;;;;;;19.80;48.50;;;;;;4904590;29;20404;-89
2021/03/15 13:50:43;;;;;;;;;;;19.80;48.60;;;;;;4907317;29;19935;-88
2021/03/15 13:53:10;;;;;;;;;;;19.70;48.60;;;;;;4920887;29;20427;-87
2021/03/15 13:55:36;;;;;;;;;;;19.70;48.80;;;;;;4903879;29;19931;-91
2021/03/15 13:58:02;;;;;;;;;;;19.70;48.80;;;;;;4903388;29;19934;-90
2021/03/15 14:00:29;;;;;;;;;;;19.70;49.00;;;;;;4908517;29;19935;-90
2021/03/15 14:02:57;;;;;;;;;;;19.60;49.10;;;;;;4903246;29;19931;-93
2021/03/15 14:05:27;;;;;;;;;;;19.60;49.20;;;;;;4916434;29;21385;-93
2021/03/15 14:07:53;;;;;;;;;;;19.50;49.00;;;;;;4914574;29;20458;-94
2021/03/15 14:10:19;;;;;;;;;;;19.50;49.30;;;;;;4905687;29;19931;-87
2021/03/15 14:12:46;;;;;;;;;;;19.40;49.30;;;;;;4927892;29;19927;-89
2021/03/15 14:15:12;;;;;;;;;;;19.40;49.60;;;;;;4905972;29;19931;-88
2021/03/15 14:17:40;;;;;;;;;;;19.40;49.20;;;;;;4910076;28;19933;-95
2021/03/15 14:20:12;;;;;;;;;;;19.40;49.20;;;;;;4914012;28;20010;-91
2021/03/15 14:22:39;;;;;;;;;;;19.30;49.70;;;;;;4902332;28;19931;-86
2021/03/15 14:25:09;;;;;;;;;;;19.40;52.50;;;;;;4906640;28;19931;-86
2021/03/15 14:27:36;;;;;;;;;;;19.50;51.80;;;;;;4921456;28;20023;-89
2021/03/15 14:30:03;;;;;;;;;;;19.50;51.00;;;;;;4909122;29;20042;-87
2021/03/15 14:32:32;;;;;;;;;;;19.60;51.00;;;;;;4910095;29;20163;-94
2021/03/15 14:34:59;;;;;;;;;;;19.60;50.90;;;;;;4902629;29;19931;-87
2021/03/15 14:37:27;;;;;;;;;;;19.60;50.60;;;;;;4866474;29;1297715;-90
2021/03/15 14:39:54;;;;;;;;;;;19.60;50.70;;;;;;4904723;29;19935;-89
2021/03/15 14:42:20;;;;;;;;;;;19.70;50.20;;;;;;4910521;28;19945;-90